createdAt,value
2022-12-23T00:00:28.692Z,95192.16
2022-12-23T00:03:17.518Z,95191.37
2022-12-23T00:06:10.313Z,95192.16
2022-12-23T00:11:41.927Z,95206.45
2022-12-23T00:14:51.916Z,95210.11
2022-12-23T00:20:40.056Z,95173.52
2022-12-23T00:26:23.338Z,95202.64
2022-12-23T00:29:12.061Z,95205.11
2022-12-23T00:34:49.827Z,95200.41
2022-12-23T00:37:39.276Z,95207.86
2022-12-23T00:40:45.084Z,95189.56
2022-12-23T00:43:33.687Z,95182.57
2022-12-23T00:49:31.767Z,95165.55
2022-12-23T00:55:01.740Z,95185.69
2022-12-23T01:00:59.703Z,95180.50
2022-12-23T01:06:34.110Z,95172.80
2022-12-23T01:09:22.373Z,95186.34
2022-12-23T01:14:59.363Z,95204.43
2022-12-23T01:17:47.674Z,95216.95
2022-12-23T01:23:25.799Z,95192.01
2022-12-23T01:29:03.894Z,95189.75
2022-12-23T01:31:52.550Z,95169.20
2022-12-23T01:37:23.825Z,95155.44
2022-12-23T01:40:13.106Z,95207.02
2022-12-23T01:45:51.152Z,95210.25
2022-12-23T01:48:41.076Z,95215.70
2022-12-23T01:51:32.698Z,95222.71
2022-12-23T01:54:21.696Z,95216.25
2022-12-23T01:57:11.665Z,95208.90
2022-12-23T02:03:20.005Z,95212.44
2022-12-23T02:09:43.142Z,95244.56
2022-12-23T02:15:52.112Z,95230.52
2022-12-23T02:22:09.792Z,95247.20
2022-12-23T02:28:21.967Z,95245.84
2022-12-23T02:33:59.771Z,95222.57
2022-12-23T02:39:34.275Z,95241.82
2022-12-23T02:42:26.853Z,95248.02
2022-12-23T02:45:17.191Z,95232.97
2022-12-23T02:50:55.212Z,95217.37
2022-12-23T02:56:30.829Z,95241.06
2022-12-23T02:59:22.951Z,95238.84
2022-12-23T03:05:01.718Z,95256.47
2022-12-23T03:10:39.224Z,95232.33
2022-12-23T03:16:24.673Z,95261.53
2022-12-23T03:22:06.310Z,95245.94
2022-12-23T03:27:43.987Z,95264.51
2022-12-23T03:33:14.898Z,95260.31
2022-12-23T03:38:55.817Z,95264.57
2022-12-23T03:44:26.151Z,95264.47
2022-12-23T03:50:14.162Z,95250.59
2022-12-23T03:53:06.098Z,95244.53
2022-12-23T03:58:48.636Z,95262.26
2022-12-23T04:04:28.676Z,95256.92
2022-12-23T04:07:19.609Z,95256.11
2022-12-23T04:12:57.263Z,95263.21
2022-12-23T04:15:45.866Z,95273.61
2022-12-23T04:21:16.599Z,95268.14
2022-12-23T04:26:54.285Z,95267.63
2022-12-23T04:29:43.031Z,95250.22
2022-12-23T04:35:21.246Z,95251.35
2022-12-23T04:41:00.062Z,95259.32
2022-12-23T04:43:54.772Z,95243.48
2022-12-23T04:46:43.562Z,95252.26
2022-12-23T04:52:17.425Z,95262.70
2022-12-23T04:57:51.389Z,95282.78
2022-12-23T05:00:40.235Z,95272.80
2022-12-23T05:03:28.911Z,95283.37
2022-12-23T05:08:59.299Z,95280.53
2022-12-23T05:14:37.584Z,95277.77
2022-12-23T05:20:06.685Z,95270.13
2022-12-23T05:25:39.767Z,95261.99
2022-12-23T05:31:14.252Z,95260.58
2022-12-23T05:34:06.589Z,95263.79
2022-12-23T05:42:25.949Z,95264.19
2022-12-23T05:48:01.539Z,95270.06
2022-12-23T05:53:37.895Z,95263.74
2022-12-23T05:59:16.599Z,95270.16
2022-12-23T06:02:05.070Z,95264.88
2022-12-23T06:04:55.925Z,95269.32
2022-12-23T06:08:13.355Z,95281.16
2022-12-23T06:13:48.970Z,95270.16
2022-12-23T06:16:37.642Z,95267.37
2022-12-23T06:22:14.047Z,95276.42
2022-12-23T06:25:02.698Z,95282.74
2022-12-23T06:30:46.017Z,95285.64
2022-12-23T06:36:21.358Z,95287.36
2022-12-23T06:41:58.754Z,95270.42
2022-12-23T06:47:30.033Z,95266.62
2022-12-23T06:53:07.835Z,95288.30
2022-12-23T06:58:45.602Z,95284.89
2022-12-23T07:04:21.317Z,95296.27
2022-12-23T07:09:58.967Z,95295.55
2022-12-23T07:12:50.844Z,95293.74
2022-12-23T07:18:28.671Z,95296.87
2022-12-23T07:21:24.903Z,95295.06
2022-12-23T07:26:58.773Z,95306.03
2022-12-23T07:32:34.173Z,95306.55
2022-12-23T07:38:13.217Z,95300.16
2022-12-23T07:43:49.064Z,95301.11
2022-12-23T07:54:52.943Z,95321.50
2022-12-23T07:57:42.486Z,95327.88
2022-12-23T08:03:20.959Z,95321.95
2022-12-23T08:08:51.462Z,95343.03
2022-12-23T08:14:20.834Z,95320.78
2022-12-23T08:19:51.886Z,95317.17
2022-12-23T08:25:25.076Z,95337.44
2022-12-23T08:28:13.388Z,95330.64
2022-12-23T08:33:58.507Z,95347.12
2022-12-23T08:39:34.651Z,95343.05
2022-12-23T08:42:24.989Z,95341.91
2022-12-23T08:45:16.676Z,95352.68
2022-12-23T08:50:55.426Z,95344.00
2022-12-23T08:56:31.704Z,95353.50
2022-12-23T08:59:20.284Z,95348.97
2022-12-23T09:04:53.323Z,95364.13
2022-12-23T09:10:28.839Z,95361.60
2022-12-23T09:13:27.793Z,95366.48
2022-12-23T09:21:38.984Z,95360.64
2022-12-23T09:24:32.121Z,95370.92
2022-12-23T09:32:42.373Z,95357.03
2022-12-23T09:38:15.825Z,95360.98
2022-12-23T09:43:52.533Z,95363.00
2022-12-23T09:49:27.514Z,95352.20
2022-12-23T09:54:57.571Z,95347.06
2022-12-23T10:00:33.771Z,95342.59
2022-12-23T10:06:31.161Z,95338.79
2022-12-23T10:09:19.751Z,95341.13
2022-12-23T10:15:07.760Z,95329.83
2022-12-23T10:17:58.330Z,95322.23
2022-12-23T10:23:38.227Z,95319.95
2022-12-23T10:26:29.916Z,95308.66
2022-12-23T10:29:20.731Z,95313.50
2022-12-23T10:35:05.734Z,95310.73
2022-12-23T10:40:48.836Z,95303.56
2022-12-23T10:43:44.577Z,95309.33
2022-12-23T10:52:14.325Z,95310.75
2022-12-23T10:57:47.472Z,95302.48
2022-12-23T11:00:39.041Z,95300.22
2022-12-23T11:09:02.295Z,95297.86
2022-12-23T11:17:35.940Z,95269.09
2022-12-23T11:26:17.858Z,95267.26
2022-12-23T11:29:11.984Z,95284.23
2022-12-23T11:34:47.614Z,95270.03
2022-12-23T11:40:33.345Z,95262.34
2022-12-23T11:43:22.552Z,95260.90
2022-12-23T11:49:15.553Z,95252.36
2022-12-23T11:54:54.906Z,95250.50
2022-12-23T12:00:38.050Z,95242.30
2022-12-23T12:06:17.236Z,95240.62
2022-12-23T12:12:16.474Z,95228.39
2022-12-23T12:17:57.605Z,95232.91
2022-12-23T12:23:33.535Z,95245.19
2022-12-23T12:29:08.969Z,95224.41
2022-12-23T12:49:08.876Z,95210.96
2022-12-23T12:54:44.146Z,95217.28
2022-12-23T13:00:17.686Z,95216.48
2022-12-23T13:06:19.688Z,95211.12
2022-12-23T13:11:59.364Z,95203.63
2022-12-23T13:17:42.634Z,95210.34
2022-12-23T13:23:42.367Z,95203.05
2022-12-23T13:28:59.927Z,95187.51
2022-12-23T13:34:36.404Z,95197.09
2022-12-23T13:40:21.374Z,95189.35
2022-12-23T13:45:56.496Z,95197.76
2022-12-23T13:51:36.145Z,95203.59
2022-12-23T14:00:05.917Z,95183.95
2022-12-23T14:02:56.551Z,95209.43
2022-12-23T14:08:32.747Z,95228.84
2022-12-23T14:14:22.033Z,95220.50
2022-12-23T14:23:15.399Z,95209.44
2022-12-23T14:32:00.949Z,95207.61
2022-12-23T14:38:32.260Z,95224.46
2022-12-23T14:44:20.080Z,95217.81
2022-12-23T14:50:40.145Z,95209.37
2022-12-23T14:56:23.399Z,95207.39
2022-12-23T15:02:06.049Z,95218.44
2022-12-23T15:07:47.180Z,95205.29
2022-12-23T15:13:26.607Z,95214.03
2022-12-23T15:19:17.903Z,95208.68
2022-12-23T15:24:54.687Z,95218.73
2022-12-23T15:30:30.213Z,95242.86
2022-12-23T15:35:58.579Z,95231.40
2022-12-23T15:38:47.178Z,95236.09
2022-12-23T15:44:35.216Z,95236.10
2022-12-23T15:47:29.700Z,95238.19
2022-12-23T15:50:19.418Z,95239.70
2022-12-23T15:55:53.543Z,95241.88
2022-12-23T16:01:27.643Z,95254.66
2022-12-23T16:04:25.382Z,95250.13
2022-12-23T16:07:24.714Z,95246.64
2022-12-23T16:13:04.587Z,95254.88
2022-12-23T16:18:47.292Z,95275.70
2022-12-23T16:21:35.346Z,95256.02
2022-12-23T16:24:27.073Z,95272.47
2022-12-23T16:29:58.194Z,95257.22
2022-12-23T16:32:50.681Z,95273.48
2022-12-23T16:38:21.304Z,95234.27
2022-12-23T16:43:59.172Z,95253.11
2022-12-23T16:49:36.267Z,95243.72
2022-12-23T16:58:21.471Z,95247.05
2022-12-23T17:06:40.719Z,95245.80
2022-12-23T17:09:33.192Z,95255.31
2022-12-23T17:15:13.101Z,95266.81
2022-12-23T17:18:02.264Z,95266.19
2022-12-23T17:24:01.717Z,95255.53
2022-12-23T17:29:40.676Z,95272.60
2022-12-23T17:35:17.404Z,95288.91
2022-12-23T17:38:10.721Z,95268.17
2022-12-23T17:43:38.504Z,95250.03
2022-12-23T17:49:29.262Z,95270.11
2022-12-23T17:52:18.950Z,95288.20
2022-12-23T17:58:00.032Z,95301.30
2022-12-23T18:03:37.414Z,95281.61
2022-12-23T18:09:13.031Z,95277.47
2022-12-23T18:14:45.519Z,95299.40
2022-12-23T18:17:34.499Z,95302.43
2022-12-23T18:23:15.520Z,95288.80
2022-12-23T18:26:04.041Z,95289.60
2022-12-23T18:31:38.651Z,95300.41
2022-12-23T18:34:27.081Z,95304.64
2022-12-23T18:40:03.295Z,95309.85
2022-12-23T18:45:35.346Z,95327.42
2022-12-23T18:53:58.308Z,95327.98
2022-12-23T18:59:37.343Z,95297.91
2022-12-23T19:05:33.422Z,95314.41
2022-12-23T19:11:13.757Z,95334.84
2022-12-23T19:16:50.884Z,95303.26
2022-12-23T19:22:16.368Z,95306.83
2022-12-23T19:25:06.876Z,95307.34
2022-12-23T19:30:56.421Z,95341.97
2022-12-23T19:36:33.698Z,95341.91
2022-12-23T19:42:11.219Z,95359.23
2022-12-23T19:47:36.933Z,95362.50
2022-12-23T19:53:17.118Z,95365.15
2022-12-23T19:58:58.060Z,95346.61
2022-12-23T20:01:46.797Z,95341.98
2022-12-23T20:07:20.337Z,95338.02
2022-12-23T20:10:11.083Z,95341.88
2022-12-23T20:13:00.739Z,95365.91
2022-12-23T20:18:30.934Z,95384.16
2022-12-23T20:24:05.830Z,95388.45
2022-12-23T20:26:54.434Z,95370.92
2022-12-23T20:32:31.867Z,95396.72
2022-12-23T20:35:19.987Z,95415.59
2022-12-23T20:38:09.197Z,95404.28
2022-12-23T20:43:46.055Z,95389.87
2022-12-23T20:46:35.689Z,95393.88
2022-12-23T20:52:11.118Z,95416.73
2022-12-23T20:57:47.176Z,95429.61
2022-12-23T21:03:24.229Z,95442.34
2022-12-23T21:09:01.204Z,95426.70
2022-12-23T21:11:50.232Z,95419.41
2022-12-23T21:17:35.348Z,95417.57
2022-12-23T21:23:04.950Z,95409.36
2022-12-23T21:28:34.932Z,95449.45
2022-12-23T21:31:24.314Z,95448.39
2022-12-23T21:34:14.383Z,95435.11
2022-12-23T21:37:03.175Z,95436.77
2022-12-23T21:39:51.740Z,95435.36
2022-12-23T21:45:31.451Z,95439.88
2022-12-23T21:51:28.557Z,95455.95
2022-12-23T21:57:16.775Z,95455.05
2022-12-23T22:00:06.262Z,95456.51
2022-12-23T22:05:51.282Z,95479.91
2022-12-23T22:08:42.533Z,95476.66
2022-12-23T22:17:05.766Z,95469.16
2022-12-23T22:22:37.382Z,95464.20
2022-12-23T22:25:26.161Z,95462.25
2022-12-23T22:28:14.745Z,95457.03
2022-12-23T22:31:07.308Z,95456.12
2022-12-23T22:33:55.849Z,95455.45
2022-12-23T22:36:44.610Z,95459.45
2022-12-23T22:42:25.363Z,95471.67
2022-12-23T22:45:14.150Z,95469.58
2022-12-23T22:48:07.029Z,95472.59
2022-12-23T22:53:53.424Z,95461.77
2022-12-23T22:56:43.817Z,95476.72
2022-12-23T23:02:15.759Z,95494.33
2022-12-23T23:05:12.598Z,95493.03
2022-12-23T23:07:58.009Z,95496.81
2022-12-23T23:13:36.612Z,95493.92
2022-12-23T23:16:25.660Z,95491.22
2022-12-23T23:19:15.403Z,95500.73
2022-12-23T23:24:46.813Z,95514.58
2022-12-23T23:30:24.011Z,95524.48
2022-12-23T23:33:15.094Z,95521.53
2022-12-23T23:36:03.922Z,95518.50
2022-12-23T23:38:53.105Z,95524.76
2022-12-23T23:44:29.557Z,95521.22
2022-12-23T23:47:17.916Z,95521.20
2022-12-23T23:52:52.199Z,95512.39
2022-12-23T23:58:20.487Z,95509.90
